VOI101 MMMX-MMPR
Flight info
| Callsign | VOI101 |
|---|---|
| Flight time | N/A |
| Altitude | 32000 |
| Route | SEBON3A SEBON UT124 NOTUP NOTUP1A |
| Aircraft | A320/M-SDE3FGHIRWY/LB1 |
Departure
| Time | 2026-05-07 03:37 |
|---|---|
| Airport | Mexico City Benito Juárez International Airport (MMMX) |
Arrival
| Time | N/A |
|---|---|
| Airport | Puerto Vallarta International Airport (MMPR) |
| Time | Latitude | Longitude | Altitude | Speed | Heading |
|---|---|---|---|---|---|
| 2026-05-07 03:10 | 19.43265 | -99.08563 | 7303 ft | 0 kts | 319° |
| 2026-05-07 03:24 | 19.43259 | -99.08557 | 6029 ft | 4 kts | 321° |
| 2026-05-07 03:25 | 19.43237 | -99.08541 | 7303 ft | 4 kts | 333° |
| 2026-05-07 03:25 | 19.43212 | -99.08530 | 7303 ft | 4 kts | 352° |
| 2026-05-07 03:25 | 19.43186 | -99.08531 | 7303 ft | 4 kts | 32° |
| 2026-05-07 03:25 | 19.43177 | -99.08539 | 7303 ft | 1 kts | 59° |
| 2026-05-07 03:29 | 19.43179 | -99.08536 | 7303 ft | 2 kts | 59° |
| 2026-05-07 03:29 | 19.43191 | -99.08515 | 7303 ft | 5 kts | 59° |
| 2026-05-07 03:29 | 19.43213 | -99.08474 | 7303 ft | 8 kts | 59° |
| 2026-05-07 03:29 | 19.43246 | -99.08416 | 7303 ft | 10 kts | 59° |
| 2026-05-07 03:30 | 19.43287 | -99.08342 | 7303 ft | 13 kts | 59° |
| 2026-05-07 03:30 | 19.43338 | -99.08253 | 7303 ft | 15 kts | 59° |
| 2026-05-07 03:30 | 19.43392 | -99.08156 | 7303 ft | 12 kts | 59° |
| 2026-05-07 03:30 | 19.43438 | -99.08073 | 7303 ft | 14 kts | 59° |
| 2026-05-07 03:31 | 19.43494 | -99.07974 | 7303 ft | 17 kts | 59° |
| 2026-05-07 03:31 | 19.43549 | -99.07875 | 7303 ft | 10 kts | 59° |
| 2026-05-07 03:31 | 19.43589 | -99.07805 | 7303 ft | 13 kts | 59° |
| 2026-05-07 03:31 | 19.43637 | -99.07718 | 7303 ft | 15 kts | 59° |
| 2026-05-07 03:32 | 19.43695 | -99.07615 | 7303 ft | 18 kts | 59° |
| 2026-05-07 03:32 | 19.43762 | -99.07497 | 7303 ft | 20 kts | 59° |
| 2026-05-07 03:32 | 19.43822 | -99.07390 | 7303 ft | 16 kts | 59° |
| 2026-05-07 03:32 | 19.43866 | -99.07312 | 7303 ft | 12 kts | 59° |
| 2026-05-07 03:33 | 19.43913 | -99.07227 | 7303 ft | 15 kts | 59° |
| 2026-05-07 03:33 | 19.43970 | -99.07127 | 7303 ft | 17 kts | 59° |
| 2026-05-07 03:33 | 19.44034 | -99.07013 | 7303 ft | 19 kts | 59° |
| 2026-05-07 03:33 | 19.44108 | -99.06882 | 7303 ft | 22 kts | 60° |
| 2026-05-07 03:34 | 19.44177 | -99.06757 | 7303 ft | 18 kts | 60° |
| 2026-05-07 03:34 | 19.44245 | -99.06638 | 7303 ft | 20 kts | 59° |
| 2026-05-07 03:34 | 19.44305 | -99.06531 | 7303 ft | 17 kts | 58° |
| 2026-05-07 03:34 | 19.44370 | -99.06416 | 7303 ft | 19 kts | 59° |
| 2026-05-07 03:35 | 19.44412 | -99.06340 | 7303 ft | 9 kts | 63° |
| 2026-05-07 03:35 | 19.44418 | -99.06281 | 7303 ft | 0 kts | 98° |
| 2026-05-07 03:35 | 19.44417 | -99.06274 | 7303 ft | 2 kts | 102° |
| 2026-05-07 03:36 | 19.44408 | -99.06247 | 7303 ft | 5 kts | 112° |
| 2026-05-07 03:36 | 19.44388 | -99.06202 | 7302 ft | 8 kts | 128° |
| 2026-05-07 03:36 | 19.44344 | -99.06228 | 7301 ft | 9 kts | 241° |
| 2026-05-07 03:36 | 19.44240 | -99.06416 | 7303 ft | 65 kts | 239° |
| 2026-05-07 03:37 | 19.43888 | -99.07043 | 7304 ft | 129 kts | 239° |
| 2026-05-07 03:37 | 19.43334 | -99.08021 | 7305 ft | 179 kts | 238° |
| 2026-05-07 03:37 | 19.42659 | -99.09214 | 7766 ft | 194 kts | 242° |
| 2026-05-07 03:37 | 19.41942 | -99.10475 | 8402 ft | 204 kts | 241° |
| 2026-05-07 03:38 | 19.41190 | -99.11782 | 9068 ft | 212 kts | 239° |
| 2026-05-07 03:38 | 19.40425 | -99.13093 | 9744 ft | 205 kts | 239° |
| 2026-05-07 03:38 | 19.39677 | -99.14362 | 10282 ft | 203 kts | 240° |
| 2026-05-07 03:38 | 19.38942 | -99.15676 | 10461 ft | 220 kts | 240° |
| 2026-05-07 03:39 | 19.38146 | -99.17134 | 10599 ft | 238 kts | 240° |
| 2026-05-07 03:39 | 19.37278 | -99.18717 | 10718 ft | 259 kts | 241° |
| 2026-05-07 03:39 | 19.36692 | -99.20541 | 11151 ft | 267 kts | 270° |
| 2026-05-07 03:39 | 19.37163 | -99.22419 | 11734 ft | 268 kts | 304° |
| 2026-05-07 03:40 | 19.38411 | -99.23889 | 12359 ft | 271 kts | 321° |
| 2026-05-07 03:40 | 19.39925 | -99.25094 | 12988 ft | 274 kts | 326° |
| 2026-05-07 03:40 | 19.41522 | -99.26224 | 13612 ft | 277 kts | 327° |
| 2026-05-07 03:40 | 19.43130 | -99.27371 | 14181 ft | 280 kts | 326° |
| 2026-05-07 03:41 | 19.44712 | -99.28554 | 14695 ft | 284 kts | 324° |
| 2026-05-07 03:41 | 19.46278 | -99.29856 | 15109 ft | 292 kts | 314° |
| 2026-05-07 03:41 | 19.47418 | -99.31702 | 15249 ft | 312 kts | 288° |
| 2026-05-07 03:41 | 19.47700 | -99.34028 | 15380 ft | 330 kts | 263° |
| 2026-05-07 03:42 | 19.47342 | -99.36498 | 15507 ft | 349 kts | 259° |
| 2026-05-07 03:42 | 19.46917 | -99.39095 | 15704 ft | 365 kts | 259° |
| 2026-05-07 03:42 | 19.46472 | -99.41768 | 16183 ft | 371 kts | 259° |
| 2026-05-07 03:42 | 19.46024 | -99.44486 | 16760 ft | 375 kts | 259° |
| 2026-05-07 03:43 | 19.45579 | -99.47222 | 17334 ft | 379 kts | 259° |
| 2026-05-07 03:43 | 19.45142 | -99.49940 | 17885 ft | 382 kts | 259° |
| 2026-05-07 03:43 | 19.44697 | -99.52727 | 18436 ft | 385 kts | 259° |
| 2026-05-07 03:43 | 19.44249 | -99.55535 | 18976 ft | 389 kts | 259° |
| 2026-05-07 03:44 | 19.43794 | -99.58373 | 19519 ft | 392 kts | 258° |
| 2026-05-07 03:44 | 19.43336 | -99.61229 | 20059 ft | 394 kts | 259° |
| 2026-05-07 03:44 | 19.42875 | -99.64100 | 20618 ft | 396 kts | 259° |
| 2026-05-07 03:44 | 19.42411 | -99.66981 | 21171 ft | 398 kts | 258° |
| 2026-05-07 03:45 | 19.41948 | -99.69866 | 21720 ft | 400 kts | 259° |
| 2026-05-07 03:45 | 19.41489 | -99.72741 | 22243 ft | 402 kts | 259° |
| 2026-05-07 03:45 | 19.41021 | -99.75667 | 22764 ft | 404 kts | 259° |
| 2026-05-07 03:45 | 19.40546 | -99.78615 | 23278 ft | 407 kts | 258° |
| 2026-05-07 03:46 | 19.40066 | -99.81573 | 23788 ft | 409 kts | 258° |
| 2026-05-07 03:46 | 19.39585 | -99.84553 | 24291 ft | 412 kts | 258° |
| 2026-05-07 03:46 | 19.39101 | -99.87551 | 24787 ft | 414 kts | 258° |
| 2026-05-07 03:46 | 19.38612 | -99.90565 | 25260 ft | 417 kts | 258° |
| 2026-05-07 03:47 | 19.38119 | -99.93599 | 25760 ft | 419 kts | 258° |
| 2026-05-07 03:47 | 19.37623 | -99.96646 | 26241 ft | 421 kts | 258° |
| 2026-05-07 03:47 | 19.37127 | -99.99675 | 26716 ft | 424 kts | 258° |
| 2026-05-07 03:47 | 19.36621 | -100.02756 | 27199 ft | 426 kts | 258° |
| 2026-05-07 03:48 | 19.36112 | -100.05858 | 27672 ft | 429 kts | 258° |
| 2026-05-07 03:48 | 19.35608 | -100.08978 | 28124 ft | 431 kts | 260° |
| 2026-05-07 03:48 | 19.35408 | -100.12156 | 28540 ft | 436 kts | 270° |
| 2026-05-07 03:48 | 19.35746 | -100.15357 | 28972 ft | 440 kts | 280° |
| 2026-05-07 03:49 | 19.36607 | -100.18479 | 29345 ft | 444 kts | 288° |
| 2026-05-07 03:49 | 19.37642 | -100.21573 | 29755 ft | 446 kts | 288° |
| 2026-05-07 03:49 | 19.38673 | -100.24676 | 30144 ft | 448 kts | 288° |
| 2026-05-07 03:49 | 19.39690 | -100.27762 | 30536 ft | 450 kts | 287° |
| 2026-05-07 03:50 | 19.40720 | -100.30899 | 30906 ft | 452 kts | 287° |
| 2026-05-07 03:50 | 19.41754 | -100.34053 | 31265 ft | 455 kts | 287° |
| 2026-05-07 03:50 | 19.42796 | -100.37227 | 31633 ft | 456 kts | 287° |
| 2026-05-07 03:50 | 19.43837 | -100.40390 | 32121 ft | 455 kts | 287° |
| 2026-05-07 03:51 | 19.44878 | -100.43546 | 32653 ft | 452 kts | 287° |
| 2026-05-07 03:51 | 19.45910 | -100.46679 | 33181 ft | 450 kts | 287° |
| 2026-05-07 03:51 | 19.46936 | -100.49806 | 33385 ft | 448 kts | 287° |
| 2026-05-07 03:52 | 19.48947 | -100.55927 | 33453 ft | 437 kts | 287° |
| 2026-05-07 03:52 | 19.50941 | -100.61990 | 33453 ft | 435 kts | 287° |
| 2026-05-07 03:53 | 19.52918 | -100.68047 | 33453 ft | 435 kts | 287° |
| 2026-05-07 03:53 | 19.54895 | -100.74100 | 33452 ft | 435 kts | 287° |
| 2026-05-07 03:54 | 19.56832 | -100.79832 | 33446 ft | 437 kts | 288° |
| 2026-05-07 03:54 | 19.57803 | -100.82646 | 33452 ft | 435 kts | 288° |
| 2026-05-07 03:55 | 19.59879 | -100.88673 | 33455 ft | 435 kts | 288° |
| 2026-05-07 03:55 | 19.61946 | -100.94718 | 33460 ft | 436 kts | 287° |
| 2026-05-07 03:56 | 19.64000 | -101.00763 | 33465 ft | 436 kts | 287° |
| 2026-05-07 03:56 | 19.66036 | -101.06776 | 33459 ft | 436 kts | 287° |
| 2026-05-07 03:57 | 19.68083 | -101.12821 | 33459 ft | 436 kts | 287° |
| 2026-05-07 03:57 | 19.70137 | -101.18873 | 33460 ft | 436 kts | 287° |
| 2026-05-07 03:58 | 19.72179 | -101.24930 | 33464 ft | 436 kts | 287° |
| 2026-05-07 03:58 | 19.74223 | -101.30995 | 33463 ft | 436 kts | 287° |
| 2026-05-07 03:59 | 19.76252 | -101.37012 | 33464 ft | 436 kts | 287° |
| 2026-05-07 03:59 | 19.78293 | -101.43068 | 33458 ft | 436 kts | 287° |
| 2026-05-07 04:00 | 19.80327 | -101.49121 | 33463 ft | 435 kts | 287° |
| 2026-05-07 04:00 | 19.82359 | -101.55177 | 33458 ft | 435 kts | 287° |
| 2026-05-07 04:01 | 19.84376 | -101.61191 | 33456 ft | 435 kts | 287° |
| 2026-05-07 04:01 | 19.86403 | -101.67234 | 33455 ft | 434 kts | 286° |
| 2026-05-07 04:02 | 19.88426 | -101.73275 | 33455 ft | 434 kts | 286° |
| 2026-05-07 04:02 | 19.90449 | -101.79312 | 33453 ft | 433 kts | 286° |
| 2026-05-07 04:03 | 19.92462 | -101.85340 | 33451 ft | 433 kts | 286° |
| 2026-05-07 04:03 | 19.94461 | -101.91331 | 33449 ft | 433 kts | 286° |
| 2026-05-07 04:04 | 19.96361 | -101.97057 | 33450 ft | 432 kts | 286° |
| 2026-05-07 04:04 | 19.98307 | -102.03200 | 33431 ft | 442 kts | 286° |
| 2026-05-07 04:05 | 20.00275 | -102.09388 | 33512 ft | 442 kts | 286° |
| 2026-05-07 04:05 | 20.02251 | -102.15575 | 33690 ft | 442 kts | 286° |
| 2026-05-07 04:05 | 20.03227 | -102.18624 | 33802 ft | 441 kts | 286° |
| 2026-05-07 04:06 | 20.04218 | -102.21711 | 33945 ft | 440 kts | 286° |
| 2026-05-07 04:06 | 20.05208 | -102.24786 | 34099 ft | 440 kts | 286° |
| 2026-05-07 04:06 | 20.06199 | -102.27857 | 34277 ft | 439 kts | 286° |
| 2026-05-07 04:06 | 20.07192 | -102.30927 | 34480 ft | 439 kts | 287° |
| 2026-05-07 04:07 | 20.08185 | -102.33995 | 34697 ft | 439 kts | 287° |
| 2026-05-07 04:07 | 20.09180 | -102.37060 | 34943 ft | 438 kts | 287° |